createdAt,value
2018-08-18T00:01:30.536Z,97018.56
2018-08-18T00:03:58.076Z,97016.01
2018-08-18T00:06:25.215Z,97017.47
2018-08-18T00:08:52.476Z,97012.41
2018-08-18T00:11:19.924Z,97016.40
2018-08-18T00:13:53.732Z,97021.44
2018-08-18T00:16:24.901Z,97022.78
2018-08-18T00:19:00.857Z,97024.31
2018-08-18T00:21:29.644Z,97023.57
2018-08-18T00:24:12.793Z,97028.44
2018-08-18T00:26:39.987Z,97031.91
2018-08-18T00:29:08.435Z,97028.84
2018-08-18T00:31:37.567Z,97023.25
2018-08-18T00:34:04.745Z,97023.63
2018-08-18T00:36:31.935Z,97027.89
2018-08-18T00:39:00.070Z,97020.13
2018-08-18T00:41:28.697Z,97023.88
2018-08-18T00:43:56.660Z,97022.80
2018-08-18T00:46:25.398Z,97026.34
2018-08-18T00:48:52.511Z,97035.91
2018-08-18T00:51:22.150Z,97044.86
2018-08-18T00:53:49.244Z,97047.02
2018-08-18T00:56:16.344Z,97049.42
2018-08-18T00:58:53.167Z,97063.73
2018-08-18T01:01:20.337Z,97059.44
2018-08-18T01:03:54.024Z,97057.38
2018-08-18T01:06:38.726Z,97067.67
2018-08-18T01:09:10.760Z,97068.61
2018-08-18T01:11:38.174Z,97071.51
2018-08-18T01:14:13.200Z,97073.96
2018-08-18T01:16:46.009Z,97076.09
2018-08-18T01:19:13.177Z,97074.23
2018-08-18T01:21:44.891Z,97073.25
2018-08-18T01:24:12.153Z,97075.00
2018-08-18T01:26:39.340Z,97079.75
2018-08-18T01:29:12.867Z,97079.16
2018-08-18T01:31:40.032Z,97083.08
2018-08-18T01:34:07.450Z,97083.77
2018-08-18T01:36:34.564Z,97086.46
2018-08-18T01:39:01.737Z,97082.33
2018-08-18T01:41:28.952Z,97080.48
2018-08-18T01:44:12.479Z,97087.49
2018-08-18T01:46:40.106Z,97093.70
2018-08-18T01:49:22.058Z,97085.08
2018-08-18T01:51:49.181Z,97087.47
2018-08-18T01:54:16.816Z,97094.58
2018-08-18T01:56:44.836Z,97097.16
2018-08-18T01:59:11.950Z,97091.07
2018-08-18T02:01:39.076Z,97090.66
2018-08-18T02:04:06.579Z,97088.87
2018-08-18T02:06:33.764Z,97092.86
2018-08-18T02:09:00.919Z,97091.11
2018-08-18T02:11:28.104Z,97092.67
2018-08-18T02:13:56.025Z,97083.85
2018-08-18T02:16:25.219Z,97095.19
2018-08-18T02:18:52.401Z,97097.94
2018-08-18T02:21:27.333Z,97100.91
2018-08-18T02:23:54.608Z,97096.02
2018-08-18T02:26:21.729Z,97093.72
2018-08-18T02:28:48.864Z,97095.06
2018-08-18T02:31:16.012Z,97106.69
2018-08-18T02:33:43.121Z,97100.75
2018-08-18T02:36:10.293Z,97101.75
2018-08-18T02:38:40.069Z,97101.69
2018-08-18T02:41:07.265Z,97111.59
2018-08-18T02:43:34.429Z,97110.41
2018-08-18T02:46:16.404Z,97100.91
2018-08-18T02:48:43.571Z,97095.83
2018-08-18T02:51:10.665Z,97096.53
2018-08-18T02:53:37.867Z,97101.08
2018-08-18T02:56:05.047Z,97102.25
2018-08-18T02:58:32.157Z,97099.50
2018-08-18T03:00:59.265Z,97107.13
2018-08-18T03:03:26.416Z,97104.36
2018-08-18T03:05:57.187Z,97112.55
2018-08-18T03:08:24.308Z,97111.22
2018-08-18T03:10:51.455Z,97101.05
2018-08-18T03:13:18.580Z,97122.78
2018-08-18T03:15:52.503Z,97130.78
2018-08-18T03:18:31.649Z,97138.06
2018-08-18T03:20:59.694Z,97140.38
2018-08-18T03:23:34.219Z,97139.67
2018-08-18T03:26:01.428Z,97145.36
2018-08-18T03:28:30.958Z,97146.53
2018-08-18T03:30:58.089Z,97138.26
2018-08-18T03:33:25.267Z,97142.04
2018-08-18T03:35:52.456Z,97142.66
2018-08-18T03:38:19.581Z,97156.98
2018-08-18T03:40:46.671Z,97157.20
2018-08-18T03:43:13.758Z,97165.98
2018-08-18T03:45:40.925Z,97160.28
2018-08-18T03:48:08.181Z,97162.68
2018-08-18T03:50:46.405Z,97164.17
2018-08-18T03:53:18.134Z,97167.03
2018-08-18T03:55:45.323Z,97166.83
2018-08-18T03:58:12.538Z,97167.55
2018-08-18T04:00:40.260Z,97168.89
2018-08-18T04:03:07.439Z,97166.90
2018-08-18T04:05:34.557Z,97169.50
2018-08-18T04:08:01.700Z,97170.00
2018-08-18T04:10:28.849Z,97172.75
2018-08-18T04:12:57.789Z,97180.14
2018-08-18T04:15:24.952Z,97173.27
2018-08-18T04:17:52.083Z,97182.80
2018-08-18T04:20:19.225Z,97177.05
2018-08-18T04:22:46.340Z,97182.95
2018-08-18T04:25:13.515Z,97182.22
2018-08-18T04:27:44.178Z,97187.82
2018-08-18T04:30:13.395Z,97192.53
2018-08-18T04:32:49.883Z,97196.48
2018-08-18T04:35:18.234Z,97195.43
2018-08-18T04:37:45.273Z,97197.70
2018-08-18T04:40:12.414Z,97197.18
2018-08-18T04:42:40.271Z,97204.14
2018-08-18T04:45:07.391Z,97201.66
2018-08-18T04:47:34.583Z,97209.20
2018-08-18T04:50:02.296Z,97208.88
2018-08-18T04:52:29.400Z,97211.00
2018-08-18T04:54:56.536Z,97214.25
2018-08-18T04:57:23.691Z,97214.97
2018-08-18T04:59:50.883Z,97215.75
2018-08-18T05:02:18.044Z,97220.42
2018-08-18T05:04:45.161Z,97218.64
2018-08-18T05:07:12.277Z,97223.67
2018-08-18T05:09:39.385Z,97221.72
2018-08-18T05:12:06.555Z,97221.27
2018-08-18T05:14:33.704Z,97220.38
2018-08-18T05:17:00.824Z,97222.61
2018-08-18T05:19:27.968Z,97224.24
2018-08-18T05:24:30.292Z,97220.75
2018-08-18T05:26:59.057Z,97222.45
2018-08-18T05:29:26.207Z,97221.12
2018-08-18T05:31:53.335Z,97221.69
2018-08-18T05:34:20.516Z,97223.69
2018-08-18T05:36:47.628Z,97225.55
2018-08-18T05:39:14.803Z,97220.55
2018-08-18T05:41:41.985Z,97227.61
2018-08-18T05:44:09.114Z,97225.44
2018-08-18T05:46:36.283Z,97229.44
2018-08-18T05:49:18.557Z,97235.86
2018-08-18T05:51:48.010Z,97236.91
2018-08-18T05:54:30.176Z,97240.45
2018-08-18T05:56:57.293Z,97243.92
2018-08-18T05:59:24.428Z,97241.30
2018-08-18T06:01:51.656Z,97239.44
2018-08-18T06:04:20.131Z,97244.90
2018-08-18T06:06:47.904Z,97239.00
2018-08-18T06:09:16.303Z,97245.30
2018-08-18T06:11:43.572Z,97246.75
2018-08-18T06:14:11.502Z,97246.55
2018-08-18T06:16:38.980Z,97238.78
2018-08-18T06:19:06.262Z,97244.36
2018-08-18T06:21:33.454Z,97245.53
2018-08-18T06:24:00.605Z,97249.20
2018-08-18T06:26:27.806Z,97245.45
2018-08-18T06:28:55.352Z,97248.41
2018-08-18T06:31:22.568Z,97250.86
2018-08-18T06:33:49.713Z,97257.60
2018-08-18T06:36:16.843Z,97258.14
2018-08-18T06:38:44.003Z,97251.18
2018-08-18T06:41:11.251Z,97255.06
2018-08-18T06:43:38.346Z,97259.28
2018-08-18T06:46:05.530Z,97258.20
2018-08-18T06:48:36.678Z,97264.03
2018-08-18T06:51:03.989Z,97251.56
2018-08-18T06:53:36.948Z,97250.09
2018-08-18T06:56:04.102Z,97252.74
2018-08-18T06:58:31.302Z,97257.25
2018-08-18T07:00:58.564Z,97255.28
2018-08-18T07:03:33.672Z,97258.31
2018-08-18T07:06:01.526Z,97256.72
2018-08-18T07:08:28.982Z,97259.52
2018-08-18T07:10:56.113Z,97260.76
2018-08-18T07:13:23.377Z,97260.86
2018-08-18T07:15:50.511Z,97261.17
2018-08-18T07:18:17.712Z,97261.17
2018-08-18T07:20:44.844Z,97273.72
2018-08-18T07:23:12.060Z,97270.97
2018-08-18T07:25:45.961Z,97273.21
2018-08-18T07:28:13.240Z,97271.86
2018-08-18T07:30:40.433Z,97265.88
2018-08-18T07:33:07.622Z,97262.79
2018-08-18T07:35:34.780Z,97266.47
2018-08-18T07:38:01.997Z,97259.69
2018-08-18T07:40:36.624Z,97260.59
2018-08-18T07:43:05.204Z,97261.55
2018-08-18T07:45:32.908Z,97263.92
2018-08-18T07:48:00.179Z,97265.57
2018-08-18T07:50:27.375Z,97267.05
2018-08-18T07:52:54.737Z,97263.39
2018-08-18T07:55:21.880Z,97273.23
2018-08-18T07:57:54.685Z,97269.81
2018-08-18T08:00:21.900Z,97275.74
2018-08-18T08:02:49.049Z,97278.96
2018-08-18T08:05:17.124Z,97275.86
2018-08-18T08:07:44.253Z,97274.02
2018-08-18T08:10:11.440Z,97278.38
2018-08-18T08:12:38.755Z,97280.87
2018-08-18T08:15:05.828Z,97284.56
2018-08-18T08:17:33.016Z,97282.75
2018-08-18T08:20:00.284Z,97280.27
2018-08-18T08:22:27.423Z,97279.42
2018-08-18T08:24:54.613Z,97283.35
2018-08-18T08:27:21.872Z,97279.50
2018-08-18T08:29:49.013Z,97279.34
2018-08-18T08:32:16.323Z,97280.93
2018-08-18T08:34:46.399Z,97278.45
2018-08-18T08:37:14.818Z,97280.63
2018-08-18T08:39:42.513Z,97284.66
2018-08-18T08:42:09.675Z,97285.68
2018-08-18T08:44:36.852Z,97274.78
2018-08-18T08:47:06.998Z,97280.16
2018-08-18T08:49:34.165Z,97274.43
2018-08-18T08:52:01.325Z,97278.63
2018-08-18T08:54:30.455Z,97281.45
2018-08-18T08:56:57.630Z,97276.80
2018-08-18T08:59:24.752Z,97291.05
2018-08-18T09:01:51.904Z,97280.78
2018-08-18T09:04:19.152Z,97276.80
2018-08-18T09:06:52.784Z,97288.19
2018-08-18T09:09:20.376Z,97283.59
2018-08-18T09:11:47.750Z,97279.80
2018-08-18T09:14:14.917Z,97283.95
2018-08-18T09:16:42.085Z,97279.75
2018-08-18T09:19:09.282Z,97278.64
2018-08-18T09:21:42.240Z,97276.72
2018-08-18T09:24:09.412Z,97271.95
2018-08-18T09:26:42.350Z,97271.70
2018-08-18T09:29:09.813Z,97275.27
2018-08-18T09:31:37.036Z,97275.38
2018-08-18T09:34:04.164Z,97273.19
2018-08-18T09:36:31.312Z,97273.86
2018-08-18T09:38:58.480Z,97267.41
2018-08-18T09:41:25.565Z,97270.95
2018-08-18T09:43:52.718Z,97273.84
2018-08-18T09:46:19.899Z,97275.27
2018-08-18T09:48:47.661Z,97265.70
2018-08-18T09:51:14.803Z,97264.84
2018-08-18T09:53:41.968Z,97261.57
2018-08-18T09:56:09.146Z,97264.31
2018-08-18T09:58:36.507Z,97253.62
2018-08-18T10:01:03.751Z,97252.29
2018-08-18T10:03:31.286Z,97255.02
2018-08-18T10:05:58.650Z,97250.18
2018-08-18T10:08:25.856Z,97246.83
2018-08-18T10:10:53.041Z,97244.01
2018-08-18T10:13:20.243Z,97242.36
2018-08-18T10:15:47.476Z,97241.55
2018-08-18T10:18:14.640Z,97234.33
2018-08-18T10:20:47.520Z,97230.41
2018-08-18T10:23:14.673Z,97234.55
2018-08-18T10:25:41.825Z,97233.48
2018-08-18T10:28:09.407Z,97234.12
2018-08-18T10:30:36.556Z,97231.31
2018-08-18T10:33:04.076Z,97233.36
2018-08-18T10:35:31.549Z,97234.82
2018-08-18T10:38:00.173Z,97234.33
2018-08-18T10:40:27.327Z,97231.86
2018-08-18T10:42:55.097Z,97229.72
2018-08-18T10:45:22.259Z,97228.72
2018-08-18T10:47:49.374Z,97229.13
2018-08-18T10:51:26.694Z,97227.17
2018-08-18T10:53:54.167Z,97226.20
2018-08-18T10:56:21.744Z,97224.28
2018-08-18T10:59:05.750Z,97230.05
2018-08-18T11:01:33.133Z,97223.58
2018-08-18T11:04:00.554Z,97223.16
2018-08-18T11:06:32.268Z,97226.39
2018-08-18T11:08:59.537Z,97225.08
2018-08-18T11:11:26.721Z,97225.98
2018-08-18T11:13:54.876Z,97222.73
2018-08-18T11:16:22.088Z,97222.77
2018-08-18T11:18:49.367Z,97231.38
2018-08-18T11:21:18.139Z,97230.02
2018-08-18T11:23:45.394Z,97227.53
2018-08-18T11:26:12.628Z,97227.14
2018-08-18T11:28:39.940Z,97223.10
2018-08-18T11:31:06.919Z,97221.73
2018-08-18T11:33:42.323Z,97217.06
2018-08-18T11:36:10.360Z,97216.98
2018-08-18T11:38:37.559Z,97215.74
2018-08-18T11:41:04.795Z,97214.15
2018-08-18T11:43:34.697Z,97208.20
2018-08-18T11:46:04.171Z,97216.30
2018-08-18T11:48:31.372Z,97208.27
2018-08-18T11:50:58.453Z,97206.20
2018-08-18T11:53:25.564Z,97206.22
2018-08-18T11:55:52.713Z,97202.85
2018-08-18T11:58:21.014Z,97203.70
2018-08-18T12:00:50.443Z,97200.56
2018-08-18T12:03:20.258Z,97197.88
2018-08-18T12:05:49.517Z,97207.38
2018-08-18T12:08:20.037Z,97206.86
2018-08-18T12:10:48.454Z,97202.71
2018-08-18T12:13:15.769Z,97201.70
2018-08-18T12:15:56.997Z,97194.46
2018-08-18T12:18:26.061Z,97190.42
2018-08-18T12:20:54.839Z,97192.02
2018-08-18T12:23:22.021Z,97191.32
2018-08-18T12:25:54.886Z,97195.38
2018-08-18T12:28:24.171Z,97187.72
2018-08-18T12:30:51.313Z,97185.28
2018-08-18T12:33:19.211Z,97188.07
2018-08-18T12:35:47.565Z,97182.22
2018-08-18T12:38:14.871Z,97180.98
2018-08-18T12:40:42.063Z,97186.33
2018-08-18T12:43:09.252Z,97181.56
2018-08-18T12:45:36.648Z,97184.86
2018-08-18T12:48:05.953Z,97172.33
2018-08-18T12:50:33.263Z,97177.45
2018-08-18T12:53:00.465Z,97171.72
2018-08-18T12:55:27.673Z,97170.02
2018-08-18T12:57:55.572Z,97169.84
2018-08-18T13:00:22.912Z,97171.14
2018-08-18T13:02:51.965Z,97165.58
2018-08-18T13:05:21.783Z,97163.18
2018-08-18T13:07:48.978Z,97170.09
2018-08-18T13:10:21.244Z,97169.23
2018-08-18T13:12:49.216Z,97160.86
2018-08-18T13:15:16.716Z,97165.07
2018-08-18T13:17:43.969Z,97159.29
2018-08-18T13:20:13.184Z,97152.89
2018-08-18T13:22:40.354Z,97144.80
2018-08-18T13:25:07.510Z,97145.81
2018-08-18T13:27:39.465Z,97145.65
2018-08-18T13:30:06.661Z,97151.31
2018-08-18T13:32:33.813Z,97142.99
2018-08-18T13:35:00.970Z,97142.05
2018-08-18T13:37:28.163Z,97141.80
2018-08-18T13:39:55.341Z,97149.79
2018-08-18T13:42:24.265Z,97148.00
2018-08-18T13:44:52.080Z,97152.49
2018-08-18T13:47:19.367Z,97146.59
2018-08-18T13:49:49.828Z,97140.77
2018-08-18T13:52:17.020Z,97143.78
2018-08-18T13:54:49.952Z,97145.19
2018-08-18T13:57:21.726Z,97152.68
2018-08-18T13:59:48.889Z,97143.55
2018-08-18T14:02:16.091Z,97145.15
2018-08-18T14:04:43.509Z,97137.27
2018-08-18T14:07:10.991Z,97136.17
2018-08-18T14:09:43.100Z,97130.95
2018-08-18T14:12:16.766Z,97134.30
2018-08-18T14:14:44.629Z,97127.35
2018-08-18T14:17:12.684Z,97122.48
2018-08-18T14:19:39.841Z,97115.22
2018-08-18T14:22:08.571Z,97124.52
2018-08-18T14:24:36.913Z,97130.64
2018-08-18T14:27:07.492Z,97123.22
2018-08-18T14:29:34.690Z,97123.53
2018-08-18T14:32:04.320Z,97121.09
2018-08-18T14:34:31.451Z,97131.30
2018-08-18T14:37:04.189Z,97126.50
2018-08-18T14:39:35.663Z,97115.38
2018-08-18T14:42:02.846Z,97121.83
2018-08-18T14:44:30.120Z,97122.03
2018-08-18T14:46:57.310Z,97128.37
2018-08-18T14:49:24.457Z,97125.72
2018-08-18T14:51:51.648Z,97128.93
2018-08-18T14:54:22.946Z,97120.05
2018-08-18T14:56:50.096Z,97124.88
2018-08-18T14:59:17.279Z,97113.47
2018-08-18T15:01:44.454Z,97122.45
2018-08-18T15:04:11.584Z,97121.33
2018-08-18T15:06:38.752Z,97114.78
2018-08-18T15:09:05.898Z,97115.81
2018-08-18T15:11:33.192Z,97115.98
2018-08-18T15:14:00.483Z,97122.38
2018-08-18T15:16:27.636Z,97119.92
2018-08-18T15:18:54.780Z,97125.05
2018-08-18T15:21:21.940Z,97115.52
2018-08-18T15:23:49.080Z,97114.08
2018-08-18T15:26:16.196Z,97117.09
2018-08-18T15:28:43.349Z,97114.00
2018-08-18T15:31:10.488Z,97121.84
2018-08-18T15:33:37.617Z,97120.48
2018-08-18T15:36:15.028Z,97128.47
2018-08-18T15:38:43.623Z,97123.08
2018-08-18T15:41:11.194Z,97121.26
2018-08-18T15:43:38.803Z,97121.23
2018-08-18T15:46:06.075Z,97128.22
2018-08-18T15:48:33.800Z,97126.45
2018-08-18T15:51:00.957Z,97131.45
2018-08-18T15:53:40.224Z,97113.05
2018-08-18T15:56:07.520Z,97120.25
2018-08-18T15:58:34.654Z,97124.42
2018-08-18T16:01:01.884Z,97127.78
2018-08-18T16:03:29.001Z,97133.59
2018-08-18T16:05:56.121Z,97129.80
2018-08-18T16:08:23.263Z,97126.63
2018-08-18T16:10:50.423Z,97138.09
2018-08-18T16:13:17.589Z,97138.92
2018-08-18T16:15:44.896Z,97133.67
2018-08-18T16:18:12.060Z,97131.59
2018-08-18T16:20:39.220Z,97128.70
2018-08-18T16:23:10.984Z,97134.76
2018-08-18T16:25:39.247Z,97136.19
2018-08-18T16:28:08.159Z,97135.01
2018-08-18T16:30:36.288Z,97139.94
2018-08-18T16:33:19.348Z,97133.88
2018-08-18T16:35:46.654Z,97137.47
2018-08-18T16:38:13.867Z,97142.30
2018-08-18T16:40:41.138Z,97143.22
2018-08-18T16:43:09.929Z,97144.88
2018-08-18T16:45:37.164Z,97146.75
2018-08-18T16:48:05.270Z,97149.73
2018-08-18T16:50:33.208Z,97158.73
2018-08-18T16:53:01.967Z,97158.14
2018-08-18T16:55:30.146Z,97165.06
2018-08-18T16:57:57.370Z,97169.99
2018-08-18T17:00:24.612Z,97169.78
2018-08-18T17:02:51.767Z,97184.02
2018-08-18T17:05:18.911Z,97181.37
2018-08-18T17:07:46.063Z,97173.96
2018-08-18T17:10:13.324Z,97181.34
2018-08-18T17:12:40.444Z,97180.83
2018-08-18T17:15:07.929Z,97181.00
2018-08-18T17:17:35.105Z,97191.81
2018-08-18T17:20:02.444Z,97197.86
2018-08-18T17:22:29.628Z,97202.53
2018-08-18T17:24:56.796Z,97209.98
2018-08-18T17:27:26.579Z,97212.80
2018-08-18T17:29:53.756Z,97212.20
2018-08-18T17:32:20.917Z,97219.52
2018-08-18T17:34:48.077Z,97225.02
2018-08-18T17:37:15.261Z,97232.98
2018-08-18T17:39:42.534Z,97233.70
2018-08-18T17:42:09.661Z,97240.27
2018-08-18T17:44:36.820Z,97237.19
2018-08-18T17:47:07.240Z,97232.38
2018-08-18T17:49:43.396Z,97231.43
2018-08-18T17:52:11.079Z,97237.44
2018-08-18T17:54:38.770Z,97242.67
2018-08-18T17:57:06.452Z,97252.48
2018-08-18T17:59:34.207Z,97248.02
2018-08-18T18:02:10.660Z,97255.22
2018-08-18T18:04:38.023Z,97260.03
2018-08-18T18:07:05.505Z,97260.13
2018-08-18T18:09:33.732Z,97268.39
2018-08-18T18:12:30.576Z,97263.45
2018-08-18T18:14:57.853Z,97270.69
2018-08-18T18:17:25.583Z,97261.25
2018-08-18T18:19:55.609Z,97273.88
2018-08-18T18:22:22.740Z,97277.32
2018-08-18T18:24:50.112Z,97275.12
2018-08-18T18:27:17.659Z,97272.05
2018-08-18T18:29:45.080Z,97279.68
2018-08-18T18:32:13.019Z,97276.25
2018-08-18T18:34:40.909Z,97278.17
2018-08-18T18:37:08.171Z,97284.30
2018-08-18T18:39:54.186Z,97277.82
2018-08-18T18:42:21.419Z,97284.87
2018-08-18T18:44:49.013Z,97282.05
2018-08-18T18:47:16.294Z,97278.42
2018-08-18T18:49:43.467Z,97280.34
2018-08-18T18:52:11.031Z,97284.19
2018-08-18T18:54:38.247Z,97291.73
2018-08-18T18:57:05.925Z,97293.44
2018-08-18T18:59:36.141Z,97295.37
2018-08-18T19:02:03.363Z,97293.64
2018-08-18T19:04:30.529Z,97296.91
2018-08-18T19:07:01.285Z,97295.77
2018-08-18T19:09:28.550Z,97302.48
2018-08-18T19:11:55.764Z,97304.59
2018-08-18T19:14:22.993Z,97302.03
2018-08-18T19:16:50.596Z,97307.36
2018-08-18T19:19:18.637Z,97307.94
2018-08-18T19:21:45.822Z,97303.70
2018-08-18T19:24:20.489Z,97306.42
2018-08-18T19:26:51.468Z,97306.05
2018-08-18T19:29:20.363Z,97306.77
2018-08-18T19:31:54.541Z,97312.20
2018-08-18T19:34:21.841Z,97317.63
2018-08-18T19:37:03.054Z,97317.41
2018-08-18T19:39:31.568Z,97320.97
2018-08-18T19:42:05.438Z,97323.70
2018-08-18T19:44:35.489Z,97329.70
2018-08-18T19:47:02.658Z,97331.66
2018-08-18T19:49:41.551Z,97327.23
2018-08-18T19:52:12.280Z,97327.27
2018-08-18T19:54:44.531Z,97328.72
2018-08-18T19:57:12.044Z,97335.53
2018-08-18T19:59:39.494Z,97336.12
2018-08-18T20:02:07.024Z,97337.54
2018-08-18T20:04:34.232Z,97337.01
2018-08-18T20:07:01.458Z,97324.29
2018-08-18T20:09:28.648Z,97338.02
2018-08-18T20:11:56.073Z,97336.48
2018-08-18T20:14:23.308Z,97337.44
2018-08-18T20:16:50.961Z,97350.81
2018-08-18T20:19:19.679Z,97353.36
2018-08-18T20:21:47.328Z,97354.41
2018-08-18T20:24:15.007Z,97354.50
2018-08-18T20:26:42.575Z,97351.63
2018-08-18T20:29:10.266Z,97354.30
2018-08-18T20:31:42.090Z,97358.08
2018-08-18T20:34:09.299Z,97354.81
2018-08-18T20:36:36.529Z,97363.33
2018-08-18T20:39:06.584Z,97363.75
2018-08-18T20:41:33.792Z,97364.40
2018-08-18T20:44:01.166Z,97367.70
2018-08-18T20:46:28.884Z,97367.28
2018-08-18T20:48:56.243Z,97373.00
2018-08-18T20:51:29.437Z,97374.09
2018-08-18T20:53:56.712Z,97370.52
2018-08-18T20:56:23.874Z,97372.34
2018-08-18T20:58:51.107Z,97373.57
2018-08-18T21:01:18.777Z,97369.45
2018-08-18T21:03:49.371Z,97370.73
2018-08-18T21:06:18.272Z,97374.88
2018-08-18T21:08:46.421Z,97372.52
2018-08-18T21:11:14.727Z,97372.39
2018-08-18T21:13:46.273Z,97380.28
2018-08-18T21:16:14.557Z,97375.98
2018-08-18T21:18:42.371Z,97369.17
2018-08-18T21:21:29.942Z,97372.23
2018-08-18T21:23:57.265Z,97375.48
2018-08-18T21:26:24.459Z,97370.25
2018-08-18T21:28:53.603Z,97375.29
2018-08-18T21:31:27.138Z,97370.59
2018-08-18T21:33:55.548Z,97374.12
2018-08-18T21:36:22.812Z,97375.48
2018-08-18T21:38:49.941Z,97380.31
2018-08-18T21:41:17.359Z,97382.70
2018-08-18T21:43:45.179Z,97383.59
2018-08-18T21:46:12.439Z,97389.91
2018-08-18T21:48:50.112Z,97393.38
2018-08-18T21:51:19.715Z,97394.59
2018-08-18T21:53:47.851Z,97394.63
2018-08-18T21:56:15.044Z,97390.38
2018-08-18T21:58:42.333Z,97393.52
2018-08-18T22:01:15.187Z,97386.95
2018-08-18T22:03:42.538Z,97389.63
2018-08-18T22:06:09.700Z,97394.73
2018-08-18T22:08:36.837Z,97391.57
2018-08-18T22:11:04.236Z,97396.28
2018-08-18T22:13:35.860Z,97391.56
2018-08-18T22:16:03.217Z,97397.39
2018-08-18T22:18:30.364Z,97390.27
2018-08-18T22:20:57.499Z,97396.94
2018-08-18T22:25:59.352Z,97390.22
2018-08-18T22:28:26.492Z,97391.28
2018-08-18T22:30:54.628Z,97396.41
2018-08-18T22:33:21.825Z,97397.30
2018-08-18T22:35:53.521Z,97395.30
2018-08-18T22:38:20.664Z,97393.82
2018-08-18T22:40:47.814Z,97392.11
2018-08-18T22:43:15.660Z,97394.82
2018-08-18T22:45:42.800Z,97404.14
2018-08-18T22:48:10.296Z,97398.92
2018-08-18T22:50:37.467Z,97400.84
2018-08-18T22:53:04.633Z,97399.70
2018-08-18T22:55:31.740Z,97395.47
2018-08-18T22:58:00.934Z,97394.55
2018-08-18T23:00:28.275Z,97399.42
2018-08-18T23:02:55.512Z,97400.64
2018-08-18T23:05:22.685Z,97396.97
2018-08-18T23:07:52.227Z,97398.47
2018-08-18T23:10:19.428Z,97399.69
2018-08-18T23:12:46.579Z,97402.59
2018-08-18T23:15:13.756Z,97399.45
2018-08-18T23:17:40.885Z,97400.07
2018-08-18T23:20:08.063Z,97395.78
2018-08-18T23:22:52.292Z,97394.73
2018-08-18T23:25:19.716Z,97393.00
2018-08-18T23:27:46.973Z,97394.02
2018-08-18T23:30:16.361Z,97399.20
2018-08-18T23:32:43.508Z,97391.34
2018-08-18T23:35:10.735Z,97387.98
2018-08-18T23:37:37.949Z,97387.13
2018-08-18T23:40:05.075Z,97386.67
2018-08-18T23:42:32.258Z,97387.35
2018-08-18T23:47:33.572Z,97382.33
2018-08-18T23:50:00.724Z,97383.39
2018-08-18T23:52:27.846Z,97376.62
2018-08-18T23:54:54.973Z,97380.83
2018-08-18T23:57:22.116Z,97386.00
2018-08-18T23:59:49.689Z,97379.06
